Patensie, South Africa

4:04 PM SAST on July 29, 2016 (GMT +0200)
Wavecrest | | Change Station

Elev 236 ft 34.03 °S, 24.92 °E | Updated 16 seconds ago

Mostly Cloudy
Mostly Cloudy
67.5 °F
Feels Like 67.5 °F
N
9.8
Wind Variable Wind from SW
Gusts 15.0 mph

Today
High -- | Low -- °F
--% Chance of Precip.
Yesterday
High -- | Low -- °F
Precip. -- in
Pressure 30.06 in
Visibility 6.2 miles
Clouds Few 1400 ft
Scattered Clouds 2000 ft
Mostly Cloudy 3200 ft
Dew Point 67 °F
Humidity 99%
Rainfall in
Snow Depth Not available.
7:15 AM 5:39 PM
Waning Crescent, 22% visible
SPECI FAPE 291401Z 26020G30KT 9999 FEW014 SCT020 BKN032 15/14 Q1018 RESHRA NOSIG
Pressure 30.06 in
Visibility 6.2 miles
Clouds Few 1400 ft
Scattered Clouds 2000 ft
Mostly Cloudy 3200 ft
Dew Point 67 °F
Humidity 99%
Rainfall in
Snow Depth Not available.
7:15 AM 5:39 PM
Waning Crescent, 22% visible
SPECI FAPE 291401Z 26020G30KT 9999 FEW014 SCT020 BKN032 15/14 Q1018 RESHRA NOSIG

10-Day Weather Forecast

No radar image for this location.
×

Almanac

Astronomy

Jul. 29, 2016 Rise Set
Actual Time
Civil Twilight
Nautical Twilight
Astronomical Twilight
Moon
Length of Visible Light
Length of Day
Tomorrow will be .
, % of the Moon is Illuminated

Today's Extremes

Country Highs Country Lows

Community

WunderPhotos

Upload Photos

1,928,341 photos uploaded!

WunderBlog® & News

Nearby

Air Quality

  Air Quality AQ Index Pollutant
Not available.

Snow Depth

Station Depth Elevation

Earthquake Activity

City Distance Mag. Time & Date
Minimum magnitude displayed is 2.5.

Coastal Water Temperatures

Place Temperature

Stations

Nearby Weather Stations

Station Location Temp. Windchill Dew Point Humidity Wind Precip. Elev Updated Type